Bedford, KY (40006)

4:05 AM EDT on August 25, 2016 (GMT -0400)
1 mile from I-71 | | Change Station

Elev 866 ft 38.53 °N, 85.25 °W | Updated 3 minutes ago

Clear
Clear
74.5 °F
Feels Like 72 °F
N
0.0
Wind Variable Wind from South

Today
High -- | Low -- °F
--% Chance of Precip.
Yesterday
High -- | Low -- °F
Precip. -- in
Pressure 30.08 in
Visibility 10.0 miles
Clouds Clear
Heat Index 72 °F
Dew Point 74 °F
Humidity 97%
Rainfall 0.00 in
Snow Depth Not available.
7:04 AM 8:20 PM
Waning Gibbous, 48% visible
METAR KLOU 250753Z AUTO 22003KT 10SM CLR 26/22 A3010 RMK AO2 SLP186 T02610222
Pressure 30.08 in
Visibility 10.0 miles
Clouds Clear
Heat Index 72 °F
Dew Point 74 °F
Humidity 97%
Rainfall 0.00 in
Snow Depth Not available.
7:04 AM 8:20 PM
Waning Gibbous, 48% visible
METAR KLOU 250753Z AUTO 22003KT 10SM CLR 26/22 A3010 RMK AO2 SLP186 T02610222

10-Day Weather Forecast

Almanac

Astronomy

Aug. 25, 2016 Rise Set
Actual Time
Civil Twilight
Nautical Twilight
Astronomical Twilight
Moon
Length of Visible Light
Length of Day
Tomorrow will be .
, % of the Moon is Illuminated

Today's Extremes

State Highs State Lows

Community

WunderPhotos

Upload Photos

1,934,814 photos uploaded!

WunderBlog® & News

Nearby

Air Quality

  Air Quality AQ Index Pollutant
Not available.

Snow Depth

Station Depth Elevation

Earthquake Activity

City Distance Mag. Time & Date
Minimum magnitude displayed is 2.5.

Coastal Water Temperatures

Place Temperature

Stations

Nearby Weather Stations

Station Location Temp. Windchill Dew Point Humidity Wind Precip. Elev Updated Type
                   

Watches & Warnings

There are currently no watches in effect.